Time;durP1;ratioP1;P1;durP2;ratioP2;P2;SDS_P1;SDS_P2;PMS_P1;PMS_P2;Temp;Humidity;BMP_temperature;BMP_pressure;BME280_temperature;BME280_humidity;BME280_pressure;Samples;Min_cycle;Max_cycle;Signal;HPM_P1;HPM_P2
2022/01/08 08:02:09;;;;;;;41.45;4.28;;;8.40;99.90;;;;;;5079384;28;20450;-70
2022/01/08 08:04:35;;;;;;;45.25;5.47;;;8.50;99.90;;;;;;5062751;28;20131;-69
2022/01/08 08:07:00;;;;;;;34.03;3.97;;;8.70;99.90;;;;;;5056592;28;20104;-69
2022/01/08 08:09:26;;;;;;;35.03;4.25;;;8.80;99.90;;;;;;5053229;28;20060;-70
2022/01/08 08:11:52;;;;;;;38.60;5.15;;;8.90;99.90;;;;;;5052819;28;21769;-69
2022/01/08 08:14:18;;;;;;;52.67;13.38;;;9.10;99.90;;;;;;5046909;28;20471;-69
2022/01/08 08:16:44;;;;;;;37.28;3.88;;;9.20;99.90;;;;;;5059251;28;20033;-69
2022/01/08 08:19:09;;;;;;;40.83;4.75;;;9.30;99.90;;;;;;5057976;28;20028;-69
2022/01/08 08:21:35;;;;;;;41.28;4.53;;;9.40;99.90;;;;;;5058583;28;20030;-69
2022/01/08 08:24:03;;;;;;;33.60;4.30;;;9.40;99.90;;;;;;5048389;28;20068;-69
2022/01/08 08:26:29;;;;;;;39.80;4.25;;;9.50;99.90;;;;;;5061319;28;20029;-69
2022/01/08 08:28:55;;;;;;;32.70;3.88;;;10.00;99.90;;;;;;5059359;28;20033;-70
2022/01/08 08:31:21;;;;;;;36.92;4.13;;;8.80;99.90;;;;;;5051382;28;20036;-71
2022/01/08 08:33:46;;;;;;;41.13;4.40;;;9.60;99.90;;;;;;5053079;28;20021;-70
2022/01/08 08:36:13;;;;;;;37.17;4.10;;;9.70;99.90;;;;;;5050018;28;20066;-70
2022/01/08 08:38:38;;;;;;;37.22;4.70;;;9.70;99.90;;;;;;5047967;28;20040;-70
2022/01/08 08:41:04;;;;;;;36.28;3.85;;;8.90;99.90;;;;;;5060439;28;20041;-69
2022/01/08 08:43:30;;;;;;;35.35;4.20;;;;;;;;;;5050182;28;20022;-70
2022/01/08 08:45:56;;;;;;;34.67;4.20;;;;;;;;;;5052587;28;20035;-69
2022/01/08 08:48:22;;;;;;;37.22;4.40;;;;;;;;;;5062646;28;20029;-69
2022/01/08 08:50:49;;;;;;;35.78;3.95;;;;;;;;;;5061246;28;20036;-70
2022/01/08 08:53:15;;;;;;;38.88;4.28;;;;;;;;;;5052003;28;20025;-70
2022/01/08 08:55:40;;;;;;;32.08;3.78;;;10.10;99.90;;;;;;5051226;28;20036;-69
2022/01/08 08:58:06;;;;;;;37.95;3.95;;;;;;;;;;5053013;28;20056;-69
2022/01/08 09:00:32;;;;;;;35.33;3.88;;;9.50;99.90;;;;;;5049583;28;20131;-69
2022/01/08 09:02:58;;;;;;;35.25;3.47;;;;;;;;;;5060697;28;20124;-69
2022/01/08 09:05:24;;;;;;;43.30;5.25;;;;;;;;;;5046617;28;20029;-69
2022/01/08 09:07:50;;;;;;;33.80;4.47;;;10.20;99.90;;;;;;5057664;28;20100;-69
2022/01/08 09:10:22;;;;;;;32.67;3.45;;;11.40;99.90;;;;;;5051774;28;20124;-69
2022/01/08 09:12:48;;;;;;;29.58;3.30;;;10.20;99.90;;;;;;5039668;28;20036;-69
2022/01/08 09:15:15;;;;;;;40.63;3.78;;;;;;;;;;5036017;28;20021;-69
2022/01/08 09:17:41;;;;;;;28.35;3.28;;;10.00;99.90;;;;;;5044736;28;20021;-69
2022/01/08 09:20:09;;;;;;;32.95;4.45;;;10.20;99.90;;;;;;5049623;28;20067;-69
2022/01/08 09:22:35;;;;;;;36.00;3.60;;;10.00;99.90;;;;;;5036284;28;20091;-69
2022/01/08 09:25:00;;;;;;;30.10;4.10;;;10.60;99.90;;;;;;5035923;28;20025;-69
2022/01/08 09:27:27;;;;;;;31.40;3.22;;;;;;;;;;5036888;28;20105;-69
2022/01/08 09:29:54;;;;;;;34.78;3.50;;;11.00;99.90;;;;;;5037921;28;20021;-69
2022/01/08 09:32:23;;;;;;;32.58;3.15;;;;;;;;;;5033998;28;20076;-69
2022/01/08 09:34:49;;;;;;;31.48;3.42;;;;;;;;;;5048589;28;20040;-69
2022/01/08 09:37:16;;;;;;;28.52;3.25;;;11.30;99.90;;;;;;5046675;28;20091;-69
2022/01/08 09:39:42;;;;;;;24.90;3.47;;;9.90;99.90;;;;;;5047040;28;20024;-69
2022/01/08 09:42:08;;;;;;;25.90;3.10;;;11.20;99.90;;;;;;5046940;28;20025;-69
2022/01/08 09:44:37;;;;;;;15.70;2.55;;;10.10;99.90;;;;;;5032103;28;20021;-69
2022/01/08 09:47:04;;;;;;;29.73;3.35;;;11.30;99.90;;;;;;5046202;28;20079;-69
2022/01/08 09:49:30;;;;;;;31.98;3.15;;;;;;;;;;5036315;28;20025;-69
2022/01/08 09:51:56;;;;;;;29.50;3.50;;;;;;;;;;5035531;28;20025;-69
2022/01/08 09:54:22;;;;;;;29.88;3.97;;;10.00;99.90;;;;;;5044026;28;20125;-69
2022/01/08 09:56:48;;;;;;;28.83;2.95;;;;;;;;;;5035514;28;20668;-69
2022/01/08 09:59:14;;;;;;;28.23;3.33;;;11.10;99.90;;;;;;5033646;28;20021;-70
2022/01/08 10:01:40;;;;;;;24.58;3.00;;;10.20;99.90;;;;;;5035485;28;20110;-69
2022/01/08 10:04:06;;;;;;;22.75;3.80;;;11.50;99.90;;;;;;5035223;28;20460;-69
2022/01/08 10:06:35;;;;;;;26.15;3.17;;;11.10;99.90;;;;;;5037615;28;20036;-69
2022/01/08 10:09:02;;;;;;;28.02;2.65;;;9.60;99.90;;;;;;5046891;28;20025;-69
2022/01/08 10:11:28;;;;;;;22.80;2.65;;;11.50;99.90;;;;;;5031900;28;20033;-69
2022/01/08 10:14:14;;;;;;;25.02;2.80;;;10.90;99.90;;;;;;5046660;28;20652;-69
2022/01/08 10:19:29;;;;;;;27.92;3.25;;;9.80;99.90;;;;;;5035904;28;20116;-69
2022/01/08 10:21:55;;;;;;;22.92;2.70;;;11.00;99.90;;;;;;5037908;28;20562;-69
2022/01/08 10:24:29;;;;;;;29.80;3.55;;;11.00;99.90;;;;;;5033614;28;20477;-69
2022/01/08 10:27:06;;;;;;;23.40;2.90;;;11.20;99.90;;;;;;5036058;28;20021;-70
2022/01/08 10:29:33;;;;;;;25.63;2.70;;;11.10;99.90;;;;;;5046266;28;20053;-69
2022/01/08 10:31:59;;;;;;;24.83;2.60;;;11.10;99.90;;;;;;5042047;28;20484;-70
2022/01/08 10:34:28;;;;;;;25.95;3.40;;;10.80;99.90;;;;;;5044670;28;20043;-69
2022/01/08 10:37:03;;;;;;;22.15;3.25;;;10.10;99.90;;;;;;5040916;28;20018;-68
2022/01/08 10:39:36;;;;;;;35.70;3.22;;;9.20;99.90;;;;;;5042257;28;20051;-69
2022/01/08 10:42:13;;;;;;;29.20;5.03;;;11.00;99.90;;;;;;5044868;28;20049;-69
2022/01/08 10:44:39;;;;;;;26.85;3.03;;;10.60;99.90;;;;;;5043228;28;20056;-69
2022/01/08 10:47:17;;;;;;;28.38;3.63;;;11.80;99.90;;;;;;5046919;28;20024;-69
2022/01/08 10:50:02;;;;;;;24.52;2.88;;;11.20;99.90;;;;;;5043854;28;20079;-69
2022/01/08 10:52:29;;;;;;;26.67;3.13;;;11.40;99.90;;;;;;5034252;28;20029;-69
2022/01/08 10:54:58;;;;;;;26.45;3.65;;;11.10;99.90;;;;;;5046898;28;20029;-69
2022/01/08 10:57:35;;;;;;;29.75;3.70;;;11.80;99.90;;;;;;5044194;28;20029;-69
2022/01/08 11:00:05;;;;;;;29.80;3.35;;;10.10;99.90;;;;;;5045529;28;20047;-69
2022/01/08 11:02:31;;;;;;;26.98;3.45;;;12.20;99.90;;;;;;5046432;28;20043;-69
2022/01/08 11:04:58;;;;;;;31.88;2.85;;;11.20;99.90;;;;;;5036879;28;20037;-69
2022/01/08 11:07:28;;;;;;;28.23;3.20;;;11.30;99.90;;;;;;5047333;28;20088;-69
2022/01/08 11:10:01;;;;;;;22.83;2.92;;;12.10;99.90;;;;;;5035563;28;20029;-69
2022/01/08 11:12:33;;;;;;;27.00;3.35;;;11.50;99.90;;;;;;5034162;28;20044;-69
2022/01/08 11:17:44;;;;;;;25.38;2.88;;;11.20;99.90;;;;;;5042358;28;20040;-69
2022/01/08 11:20:14;;;;;;;17.95;2.33;;;11.10;99.90;;;;;;5036291;28;20047;-73
2022/01/08 11:22:43;;;;;;;27.67;3.20;;;11.20;99.90;;;;;;5040458;28;20028;-72
2022/01/08 11:25:17;;;;;;;27.85;2.60;;;11.80;99.90;;;;;;5036993;28;20543;-70
2022/01/08 11:28:11;;;;;;;20.70;2.65;;;10.90;99.90;;;;;;5038634;28;20472;-72
2022/01/08 11:30:38;;;;;;;16.60;2.70;;;;;;;;;;5039567;28;20060;-70
2022/01/08 11:33:15;;;;;;;25.73;3.05;;;12.10;99.90;;;;;;5034216;28;20067;-71
2022/01/08 11:35:42;;;;;;;20.83;2.50;;;11.20;99.90;;;;;;5030426;28;20033;-70
2022/01/08 11:38:11;;;;;;;29.70;2.72;;;10.30;99.90;;;;;;5048034;28;20029;-70
2022/01/08 11:40:39;;;;;;;23.05;3.35;;;11.80;99.90;;;;;;5042762;28;20041;-71
2022/01/08 11:43:08;;;;;;;23.13;2.35;;;11.10;99.90;;;;;;5045354;28;20029;-68
2022/01/08 11:45:43;;;;;;;24.15;2.30;;;11.00;99.90;;;;;;5041125;28;20029;-71
2022/01/08 11:48:11;;;;;;;20.25;2.63;;;11.30;99.90;;;;;;5044019;28;20013;-68
2022/01/08 11:50:38;;;;;;;23.75;3.10;;;11.90;99.90;;;;;;5048553;28;20033;-71
2022/01/08 11:53:23;;;;;;;19.65;3.05;;;11.10;99.90;;;;;;5045346;28;20582;-68
2022/01/08 11:55:56;;;;;;;23.58;3.58;;;12.20;99.90;;;;;;5050985;28;20020;-68
2022/01/08 11:58:27;;;;;;;19.58;2.72;;;10.80;99.90;;;;;;5041459;28;20511;-68
2022/01/08 12:01:02;;;;;;;22.42;2.72;;;11.00;99.90;;;;;;5042747;28;20493;-68
2022/01/08 12:03:28;;;;;;;23.67;2.65;;;11.90;99.90;;;;;;5042120;28;20048;-68
2022/01/08 12:05:54;;;;;;;18.88;2.72;;;11.50;99.90;;;;;;5036755;28;20080;-70
2022/01/08 12:08:56;;;;;;;24.02;2.63;;;11.30;99.90;;;;;;5044153;28;20029;-70
2022/01/08 12:11:23;;;;;;;16.38;2.08;;;;;;;;;;5046156;28;20060;-70
2022/01/08 12:13:50;;;;;;;15.73;1.90;;;11.10;99.90;;;;;;5046528;28;20033;-70
2022/01/08 12:16:35;;;;;;;15.07;2.17;;;11.20;99.90;;;;;;5043923;28;20040;-71
2022/01/08 12:19:04;;;;;;;16.65;2.20;;;11.30;99.90;;;;;;5039139;28;20052;-70
2022/01/08 12:21:32;;;;;;;19.33;2.55;;;11.90;99.90;;;;;;5042749;28;20598;-71
2022/01/08 12:23:59;;;;;;;16.70;2.22;;;12.20;99.90;;;;;;5044343;28;20177;-71
2022/01/08 12:26:25;;;;;;;18.40;2.08;;;11.60;99.90;;;;;;5045325;28;20028;-69
2022/01/08 12:28:53;;;;;;;19.83;2.65;;;11.00;99.90;;;;;;5032966;28;20025;-69
2022/01/08 12:31:29;;;;;;;18.85;2.30;;;11.20;99.90;;;;;;5041208;28;20025;-69
2022/01/08 12:34:18;;;;;;;13.77;1.60;;;11.60;99.90;;;;;;5043857;28;20028;-70
2022/01/08 12:37:04;;;;;;;23.67;2.95;;;12.40;99.90;;;;;;5038684;28;20048;-68
2022/01/08 12:39:42;;;;;;;12.63;1.90;;;12.40;99.90;;;;;;5041065;28;20086;-69
2022/01/08 12:42:19;;;;;;;19.48;2.40;;;11.40;99.90;;;;;;5047642;28;20044;-70
2022/01/08 12:45:04;;;;;;;12.80;1.45;;;11.30;99.90;;;;;;5039648;28;20060;-69
2022/01/08 12:48:04;;;;;;;16.88;2.53;;;11.30;99.90;;;;;;5045112;28;20036;-69
2022/01/08 12:50:37;;;;;;;13.40;2.13;;;10.30;99.90;;;;;;5053252;28;20032;-69
2022/01/08 12:53:06;;;;;;;15.85;2.00;;;11.40;99.90;;;;;;5040046;28;20032;-69
2022/01/08 12:55:34;;;;;;;19.65;2.13;;;9.60;99.90;;;;;;5051907;28;20480;-69
2022/01/08 12:58:00;;;;;;;11.27;1.90;;;11.00;99.90;;;;;;5061004;28;20032;-70
2022/01/08 13:00:27;;;;;;;16.98;2.17;;;10.70;99.90;;;;;;5048250;28;20136;-70
2022/01/08 13:02:53;;;;;;;18.60;2.08;;;10.10;99.90;;;;;;5033971;28;20025;-72
2022/01/08 13:05:19;;;;;;;10.10;1.30;;;11.20;99.90;;;;;;5049049;28;20028;-70
2022/01/08 13:07:49;;;;;;;16.77;2.05;;;11.40;99.90;;;;;;5050302;28;20021;-71
2022/01/08 13:10:18;;;;;;;19.48;2.05;;;;;;;;;;5044118;28;20031;-70
2022/01/08 13:13:04;;;;;;;11.27;1.60;;;11.40;99.90;;;;;;5051514;28;20029;-70
2022/01/08 13:15:33;;;;;;;13.93;1.85;;;11.70;99.90;;;;;;5045034;28;20558;-70
2022/01/08 13:18:25;;;;;;;12.13;1.70;;;11.60;99.90;;;;;;5035440;28;20087;-69
2022/01/08 13:21:20;;;;;;;10.02;1.50;;;11.90;99.90;;;;;;5032925;28;20055;-70
2022/01/08 13:23:49;;;;;;;16.05;1.58;;;10.80;99.90;;;;;;5027689;28;20048;-69
2022/01/08 13:26:26;;;;;;;21.95;1.95;;;11.40;99.90;;;;;;5047914;28;20025;-68
2022/01/08 13:28:52;;;;;;;11.27;1.60;;;12.20;99.90;;;;;;5050257;28;20032;-70
2022/01/08 13:31:18;;;;;;;8.32;1.20;;;11.80;99.90;;;;;;5049724;28;20036;-69
2022/01/08 13:33:54;;;;;;;6.93;1.30;;;11.50;99.90;;;;;;5049830;28;20059;-68
2022/01/08 13:36:21;;;;;;;16.65;1.83;;;12.00;99.90;;;;;;5036003;28;20091;-68
2022/01/08 13:38:47;;;;;;;10.60;1.65;;;;;;;;;;5046782;28;20044;-68
2022/01/08 13:41:16;;;;;;;11.40;1.60;;;11.50;99.90;;;;;;5040471;28;20028;-68
2022/01/08 13:44:01;;;;;;;9.85;1.67;;;11.90;99.90;;;;;;5045523;28;20123;-69
2022/01/08 13:46:29;;;;;;;7.20;1.27;;;11.90;99.90;;;;;;5049397;28;20021;-68
2022/01/08 13:48:56;;;;;;;9.60;1.73;;;11.60;99.90;;;;;;5045103;28;20481;-68
2022/01/08 13:51:24;;;;;;;12.32;1.50;;;11.50;99.90;;;;;;5035532;28;20116;-70
2022/01/08 13:54:00;;;;;;;5.60;0.98;;;11.40;99.90;;;;;;5047875;28;20017;-70
2022/01/08 13:56:29;;;;;;;8.57;1.98;;;11.60;99.90;;;;;;5057979;28;20025;-69
2022/01/08 13:59:04;;;;;;;6.70;1.33;;;11.30;99.90;;;;;;5046784;28;20432;-69
2022/01/08 14:01:46;;;;;;;8.13;1.60;;;11.60;99.90;;;;;;5048511;28;20060;-68
2022/01/08 14:04:13;;;;;;;8.45;1.20;;;11.20;99.90;;;;;;5038272;28;20034;-68
2022/01/08 14:06:41;;;;;;;7.25;1.10;;;12.20;99.90;;;;;;5038248;28;20033;-69
2022/01/08 14:09:08;;;;;;;10.73;1.67;;;11.50;99.90;;;;;;5047616;28;20165;-69
2022/01/08 14:11:35;;;;;;;10.52;1.40;;;11.70;99.90;;;;;;5037238;28;20057;-68
2022/01/08 14:14:01;;;;;;;8.73;1.40;;;;;;;;;;5048739;28;20025;-69
2022/01/08 14:16:29;;;;;;;10.18;1.50;;;12.10;99.90;;;;;;5038663;28;20548;-67
2022/01/08 14:19:05;;;;;;;9.20;1.30;;;11.40;99.90;;;;;;5047125;28;20036;-68
2022/01/08 14:21:31;;;;;;;11.05;1.17;;;11.90;99.90;;;;;;5036739;28;20033;-67
2022/01/08 14:24:22;;;;;;;6.40;0.95;;;11.40;99.90;;;;;;5032732;28;20521;-68
2022/01/08 14:27:08;;;;;;;9.88;1.55;;;11.50;99.90;;;;;;5043272;28;20057;-69
2022/01/08 14:29:36;;;;;;;5.65;1.00;;;11.20;99.90;;;;;;5045624;28;20025;-68
2022/01/08 14:32:05;;;;;;;5.53;0.90;;;10.90;99.90;;;;;;5061450;28;20048;-68
2022/01/08 14:34:49;;;;;;;7.97;1.15;;;12.20;99.90;;;;;;5033884;28;20036;-68
2022/01/08 14:37:37;;;;;;;8.27;0.93;;;12.30;99.90;;;;;;5040781;28;20025;-68
2022/01/08 14:40:25;;;;;;;10.32;1.20;;;11.80;99.90;;;;;;5039914;28;20532;-69
2022/01/08 14:42:59;;;;;;;3.30;1.00;;;11.50;99.90;;;;;;5040693;28;20095;-68
2022/01/08 14:45:27;;;;;;;2.63;0.70;;;11.80;99.90;;;;;;5047041;28;20104;-68
2022/01/08 14:47:57;;;;;;;3.85;0.80;;;12.00;99.90;;;;;;5047506;28;20029;-68
2022/01/08 14:50:26;;;;;;;6.05;0.80;;;11.60;99.90;;;;;;5050696;28;20237;-68
2022/01/08 14:52:53;;;;;;;2.95;0.77;;;12.20;99.90;;;;;;5037483;28;20035;-69
2022/01/08 14:55:28;;;;;;;5.28;0.80;;;11.20;99.90;;;;;;5034673;28;20091;-69
2022/01/08 14:57:54;;;;;;;3.63;0.82;;;11.20;99.90;;;;;;5042494;28;20074;-69
2022/01/08 15:00:20;;;;;;;6.40;0.80;;;12.20;99.90;;;;;;5052643;28;20056;-69
2022/01/08 15:02:47;;;;;;;4.65;0.82;;;11.10;99.90;;;;;;5032403;28;20037;-69
2022/01/08 15:05:13;;;;;;;5.82;0.90;;;12.10;99.90;;;;;;5048094;28;20111;-69
2022/01/08 15:07:40;;;;;;;5.88;0.90;;;11.60;99.90;;;;;;5043071;28;20880;-69
2022/01/08 15:10:08;;;;;;;4.53;0.90;;;11.60;99.90;;;;;;5052265;28;20034;-68
2022/01/08 15:12:36;;;;;;;5.63;0.82;;;11.30;99.90;;;;;;5045055;28;20796;-69
2022/01/08 15:15:05;;;;;;;6.10;0.80;;;11.20;99.90;;;;;;5048894;28;20045;-69
2022/01/08 15:17:31;;;;;;;6.90;1.10;;;11.70;99.90;;;;;;5049931;28;20029;-69
2022/01/08 15:19:58;;;;;;;5.03;1.40;;;;;;;;;;5054260;28;20035;-69
2022/01/08 15:22:23;;;;;;;4.47;1.08;;;12.10;99.90;;;;;;5039487;28;20030;-69
2022/01/08 15:24:50;;;;;;;4.60;0.90;;;;;;;;;;5035365;28;20025;-69
2022/01/08 15:27:16;;;;;;;9.70;1.17;;;;;;;;;;5042788;28;20029;-69
2022/01/08 15:29:42;;;;;;;7.25;1.15;;;;;;;;;;5039767;28;20021;-69
2022/01/08 15:32:08;;;;;;;11.00;1.55;;;11.10;99.90;;;;;;5031955;28;20044;-69
2022/01/08 15:34:34;;;;;;;9.23;1.27;;;12.20;99.90;;;;;;5045850;28;20021;-69
2022/01/08 15:37:00;;;;;;;8.75;1.23;;;12.00;99.90;;;;;;5042816;28;20032;-69
2022/01/08 15:39:26;;;;;;;8.55;1.25;;;;;;;;;;5041532;28;20033;-70
2022/01/08 15:41:52;;;;;;;7.57;1.20;;;12.20;99.90;;;;;;5043495;28;20040;-70
2022/01/08 15:44:19;;;;;;;7.13;1.27;;;;;;;;;;5045666;28;20653;-69
2022/01/08 15:46:44;;;;;;;5.35;1.23;;;11.20;99.90;;;;;;5050109;28;20079;-69
2022/01/08 15:49:11;;;;;;;7.03;1.15;;;11.20;99.90;;;;;;5035079;28;20033;-69
2022/01/08 15:51:38;;;;;;;8.13;1.50;;;11.70;99.90;;;;;;5039296;28;20026;-68
2022/01/08 15:54:05;;;;;;;6.60;1.00;;;11.10;99.90;;;;;;5041332;28;20052;-69
2022/01/08 15:56:33;;;;;;;5.97;0.93;;;11.40;99.90;;;;;;5034840;28;20397;-69
2022/01/08 15:59:03;;;;;;;1.77;0.57;;;11.10;99.90;;;;;;5033166;28;20559;-70
2022/01/08 16:01:30;;;;;;;2.47;0.50;;;10.80;99.90;;;;;;5039642;28;20052;-68
2022/01/08 16:03:56;;;;;;;3.50;0.60;;;10.20;99.90;;;;;;5048097;28;20116;-68
2022/01/08 16:06:22;;;;;;;4.22;0.85;;;10.20;99.90;;;;;;5046429;28;20040;-70
2022/01/08 16:08:48;;;;;;;3.03;0.70;;;;;;;;;;5042502;28;20037;-68
2022/01/08 16:11:16;;;;;;;4.88;0.90;;;10.20;99.90;;;;;;5044058;28;20056;-67
2022/01/08 16:13:44;;;;;;;4.75;0.82;;;10.10;99.90;;;;;;5037618;28;20041;-67
2022/01/08 16:16:10;;;;;;;3.10;0.70;;;10.30;99.90;;;;;;5042830;28;20035;-67
2022/01/08 16:18:36;;;;;;;3.17;0.60;;;10.50;99.90;;;;;;5036335;28;20024;-67
2022/01/08 16:21:02;;;;;;;5.93;0.80;;;10.60;99.90;;;;;;5045748;28;20160;-67
2022/01/08 16:23:29;;;;;;;3.33;0.77;;;10.20;99.90;;;;;;5045560;28;20021;-67
2022/01/08 16:25:55;;;;;;;10.02;1.20;;;;;;;;;;5050711;28;20041;-67
2022/01/08 16:28:23;;;;;;;4.97;0.85;;;10.80;99.90;;;;;;5053029;28;20655;-67
2022/01/08 16:30:50;;;;;;;6.88;1.10;;;10.10;99.90;;;;;;5050859;28;20260;-67
2022/01/08 16:33:18;;;;;;;6.78;1.00;;;10.70;99.90;;;;;;5047244;28;20046;-67
2022/01/08 16:35:49;;;;;;;7.70;1.10;;;10.20;99.90;;;;;;5045172;28;20041;-67
2022/01/08 16:38:16;;;;;;;10.07;1.30;;;7.70;99.90;;;;;;5054928;28;20068;-67
2022/01/08 16:40:43;;;;;;;7.30;1.10;;;9.50;99.90;;;;;;5048511;28;20048;-67
2022/01/08 16:43:10;;;;;;;13.52;1.83;;;;;;;;;;5038931;28;20112;-67
2022/01/08 16:45:36;;;;;;;8.07;1.30;;;9.20;99.90;;;;;;5044499;28;20033;-69
2022/01/08 16:48:03;;;;;;;12.13;2.08;;;10.80;99.90;;;;;;5052281;28;20032;-69
2022/01/08 16:50:29;;;;;;;11.52;1.63;;;10.40;99.90;;;;;;5032968;28;20033;-69
2022/01/08 16:52:55;;;;;;;10.07;1.85;;;11.20;99.90;;;;;;5055892;28;20372;-69
2022/01/08 16:55:21;;;;;;;15.48;2.15;;;10.10;99.90;;;;;;5041034;28;20060;-69
2022/01/08 16:57:46;;;;;;;15.98;2.30;;;10.30;99.90;;;;;;5048141;28;21176;-68
2022/01/08 17:00:15;;;;;;;13.18;2.03;;;10.50;99.90;;;;;;5055359;28;20143;-69
2022/01/08 17:02:41;;;;;;;11.45;2.53;;;10.60;99.90;;;;;;5062647;28;20111;-69
2022/01/08 17:05:08;;;;;;;16.63;2.53;;;10.40;99.90;;;;;;5066207;28;20021;-69
2022/01/08 17:07:34;;;;;;;16.27;2.42;;;;;;;;;;5060465;28;20499;-69
2022/01/08 17:10:01;;;;;;;18.88;2.70;;;10.50;99.90;;;;;;5059408;28;20037;-69
2022/01/08 17:12:27;;;;;;;16.90;2.50;;;9.60;99.90;;;;;;5044101;28;20218;-70
2022/01/08 17:14:55;;;;;;;22.05;3.05;;;10.60;99.90;;;;;;5045841;28;20025;-71
2022/01/08 17:17:21;;;;;;;26.65;3.38;;;10.50;99.90;;;;;;5046162;28;20025;-70
2022/01/08 17:19:48;;;;;;;16.90;2.63;;;10.30;99.90;;;;;;5041051;28;20028;-71
2022/01/08 17:22:14;;;;;;;23.60;2.65;;;10.40;99.90;;;;;;5054457;28;20089;-71
2022/01/08 17:24:40;;;;;;;17.08;3.42;;;;;;;;;;5056529;28;20101;-71
2022/01/08 17:27:07;;;;;;;17.63;3.15;;;10.40;99.90;;;;;;5053368;28;20023;-72
2022/01/08 17:29:34;;;;;;;21.08;2.78;;;10.40;99.90;;;;;;5059101;28;20516;-71
2022/01/08 17:32:00;;;;;;;12.02;2.10;;;10.10;99.90;;;;;;5050564;28;20109;-74
2022/01/08 17:34:25;;;;;;;17.85;2.30;;;9.90;99.90;;;;;;5043601;28;20021;-72
2022/01/08 17:36:51;;;;;;;20.67;2.80;;;10.50;99.90;;;;;;5044766;28;20034;-73
2022/01/08 17:39:17;;;;;;;15.80;2.58;;;9.50;99.90;;;;;;5051643;28;20028;-71
2022/01/08 17:41:43;;;;;;;16.25;2.40;;;10.20;99.90;;;;;;5048032;28;20096;-71
2022/01/08 17:44:09;;;;;;;20.42;3.20;;;;;;;;;;5046928;28;20508;-72
2022/01/08 17:46:35;;;;;;;18.30;2.78;;;;;;;;;;5048129;28;20029;-71
2022/01/08 17:49:01;;;;;;;12.32;2.50;;;;;;;;;;5043228;28;20527;-73
2022/01/08 17:51:27;;;;;;;16.55;2.40;;;10.10;99.90;;;;;;5046985;28;20029;-72
2022/01/08 17:53:55;;;;;;;14.20;2.67;;;10.10;99.90;;;;;;5046209;28;20029;-73
2022/01/08 17:56:21;;;;;;;19.10;2.60;;;;;;;;;;5051575;28;20024;-72
2022/01/08 17:58:47;;;;;;;19.20;2.47;;;;;;;;;;5042230;28;20028;-73
2022/01/08 18:01:13;;;;;;;16.75;2.50;;;;;;;;;;5046142;28;20589;-71
2022/01/08 18:03:40;;;;;;;19.77;2.58;;;10.40;99.90;;;;;;5047237;28;20116;-71
2022/01/08 18:06:06;;;;;;;17.85;2.53;;;10.20;99.90;;;;;;5046607;28;20029;-71
2022/01/08 18:08:32;;;;;;;23.90;2.60;;;9.50;99.90;;;;;;5046848;28;20067;-70
2022/01/08 18:10:58;;;;;;;14.20;3.75;;;10.20;99.90;;;;;;5046868;28;20039;-73
2022/01/08 18:13:24;;;;;;;16.42;2.83;;;10.60;99.90;;;;;;5038607;28;20033;-72
2022/01/08 18:15:50;;;;;;;15.18;3.00;;;;;;;;;;5040116;28;20388;-70
2022/01/08 18:18:17;;;;;;;11.07;2.20;;;;;;;;;;5038781;28;20029;-72
2022/01/08 18:20:45;;;;;;;12.40;2.70;;;;;;;;;;5047150;28;20110;-71
2022/01/08 18:23:11;;;;;;;14.15;2.38;;;12.60;99.90;;;;;;5034128;28;20492;-70
2022/01/08 18:25:37;;;;;;;9.02;1.65;;;10.20;99.90;;;;;;5052027;28;20078;-72
2022/01/08 18:28:04;;;;;;;17.45;2.45;;;9.60;99.90;;;;;;5041445;28;20043;-72
2022/01/08 18:30:31;;;;;;;7.20;1.38;;;10.30;99.90;;;;;;5040898;28;20045;-72
2022/01/08 18:32:59;;;;;;;10.40;1.85;;;9.80;99.90;;;;;;5038730;28;20508;-68
2022/01/08 18:35:28;;;;;;;9.10;1.42;;;9.70;99.90;;;;;;5045229;28;20027;-70
2022/01/08 18:37:55;;;;;;;6.87;1.60;;;;;;;;;;5038668;28;20060;-70
2022/01/08 18:40:24;;;;;;;16.40;2.63;;;9.60;99.90;;;;;;5043230;28;20307;-71
2022/01/08 18:42:52;;;;;;;12.75;1.73;;;9.80;99.90;;;;;;5045225;28;20497;-71
2022/01/08 18:45:19;;;;;;;8.77;1.40;;;9.50;99.90;;;;;;5046747;28;20083;-71
2022/01/08 18:47:45;;;;;;;12.57;1.70;;;;;;;;;;5052122;28;20024;-69
2022/01/08 18:50:12;;;;;;;9.00;1.30;;;9.50;99.90;;;;;;5047082;28;20055;-70
2022/01/08 18:52:38;;;;;;;8.77;1.55;;;;;;;;;;5034600;28;20022;-70
2022/01/08 18:55:08;;;;;;;4.13;0.93;;;9.20;99.90;;;;;;5040865;28;20481;-69
2022/01/08 18:57:34;;;;;;;7.72;1.73;;;;;;;;;;5039258;28;20022;-71
2022/01/08 19:00:00;;;;;;;7.03;1.17;;;8.80;99.90;;;;;;5058822;28;20068;-71
2022/01/08 19:02:27;;;;;;;8.00;1.25;;;;;;;;;;5054406;28;20091;-70
2022/01/08 19:04:53;;;;;;;7.40;1.00;;;;;;;;;;5033934;28;20041;-70
2022/01/08 19:07:19;;;;;;;7.85;1.75;;;;;;;;;;5045417;28;20107;-70
2022/01/08 19:09:45;;;;;;;8.65;1.25;;;;;;;;;;5045962;28;20032;-70
2022/01/08 19:12:12;;;;;;;15.90;1.58;;;;;;;;;;5041340;28;20036;-71
2022/01/08 19:14:37;;;;;;;10.88;1.80;;;7.80;99.90;;;;;;5032091;28;20025;-71
2022/01/08 19:17:05;;;;;;;12.07;1.45;;;10.10;99.90;;;;;;5040379;28;20403;-69
2022/01/08 19:19:31;;;;;;;16.13;2.28;;;8.80;99.90;;;;;;5040294;28;20025;-71
2022/01/08 19:21:57;;;;;;;16.98;2.15;;;;;;;;;;5044605;28;20095;-71
2022/01/08 19:24:23;;;;;;;14.60;1.83;;;;;;;;;;5044841;28;20040;-71
2022/01/08 19:26:49;;;;;;;16.80;2.42;;;9.10;99.90;;;;;;5045515;28;20036;-71
2022/01/08 19:29:15;;;;;;;11.98;2.10;;;8.50;99.90;;;;;;5046444;28;20488;-71
2022/01/08 19:31:41;;;;;;;12.32;1.88;;;8.80;99.90;;;;;;5046067;28;20061;-71
2022/01/08 19:34:09;;;;;;;11.73;1.70;;;8.80;99.90;;;;;;5036011;28;20018;-71
2022/01/08 19:36:35;;;;;;;12.20;1.60;;;7.90;99.90;;;;;;5037269;28;20028;-71
2022/01/08 19:39:01;;;;;;;8.10;1.70;;;;;;;;;;5049221;28;20021;-71
2022/01/08 19:41:27;;;;;;;13.38;1.45;;;;;;;;;;5032817;28;20040;-72
2022/01/08 19:43:54;;;;;;;10.20;1.35;;;8.70;99.90;;;;;;5055204;28;20052;-71
2022/01/08 19:46:20;;;;;;;10.57;2.35;;;8.10;99.90;;;;;;5046784;28;20033;-72
2022/01/08 19:48:46;;;;;;;10.82;1.33;;;;;;;;;;5033591;28;20033;-72
2022/01/08 19:51:12;;;;;;;10.27;1.45;;;;;;;;;;5044204;28;20032;-71
2022/01/08 19:53:38;;;;;;;6.45;1.23;;;;;;;;;;5044094;28;20025;-72
2022/01/08 19:56:04;;;;;;;5.80;1.13;;;;;;;;;;5052561;28;20032;-71
2022/01/08 19:58:31;;;;;;;5.57;1.25;;;;;;;;;;5034313;28;20029;-71
2022/01/08 20:00:57;;;;;;;6.13;1.17;;;;;;;;;;5036387;28;20085;-71
2022/01/08 20:03:23;;;;;;;3.65;0.60;;;8.40;99.90;;;;;;5033860;28;20033;-71
2022/01/08 20:05:52;;;;;;;2.83;0.60;;;;;;;;;;5045202;28;20034;-71
2022/01/08 20:08:18;;;;;;;2.63;0.70;;;6.40;99.90;;;;;;5031273;28;20108;-71
2022/01/08 20:10:44;;;;;;;2.97;0.70;;;;;;;;;;5047067;28;20082;-70
2022/01/08 20:13:10;;;;;;;4.78;0.68;;;;;;;;;;5040247;28;20557;-71
2022/01/08 20:15:36;;;;;;;5.63;0.82;;;7.20;99.90;;;;;;5041086;28;20496;-71
2022/01/08 20:18:03;;;;;;;4.20;0.73;;;;;;;;;;5043378;28;20037;-72
2022/01/08 20:20:29;;;;;;;2.45;0.60;;;7.00;99.90;;;;;;5045543;28;20099;-71
2022/01/08 20:22:55;;;;;;;2.80;0.80;;;;;;;;;;5033249;28;20469;-70
2022/01/08 20:25:21;;;;;;;5.45;1.00;;;;;;;;;;5051319;28;20579;-70
2022/01/08 20:27:47;;;;;;;9.00;1.10;;;;;;;;;;5049235;28;20492;-71
2022/01/08 20:30:13;;;;;;;7.10;1.33;;;6.70;99.90;;;;;;5044981;28;20090;-71
2022/01/08 20:32:39;;;;;;;4.85;1.50;;;6.60;99.90;;;;;;5044426;28;20463;-71
2022/01/08 20:35:06;;;;;;;10.07;1.30;;;4.00;99.90;;;;;;5045033;28;20025;-71
2022/01/08 20:37:33;;;;;;;5.82;1.20;;;6.40;99.90;;;;;;5044772;28;20033;-70
2022/01/08 20:40:00;;;;;;;7.82;1.45;;;6.60;99.90;;;;;;5039402;28;20021;-70
2022/01/08 20:42:26;;;;;;;7.85;1.80;;;;;;;;;;5032326;28;20040;-70
2022/01/08 20:44:52;;;;;;;9.45;2.17;;;5.90;99.90;;;;;;5044752;28;20025;-69
2022/01/08 20:47:18;;;;;;;8.85;1.83;;;;;;;;;;5046794;28;20040;-72
2022/01/08 20:49:44;;;;;;;11.63;1.70;;;;;;;;;;5049730;28;20515;-71
2022/01/08 20:52:10;;;;;;;8.63;1.67;;;;;;;;;;5039933;28;20033;-72
2022/01/08 20:54:36;;;;;;;7.13;1.52;;;6.60;99.90;;;;;;5042601;28;20528;-70
2022/01/08 20:57:03;;;;;;;10.32;1.42;;;6.00;99.90;;;;;;5040617;28;20033;-72
2022/01/08 20:59:29;;;;;;;9.52;1.63;;;;;;;;;;5046974;28;20032;-72
2022/01/08 21:01:55;;;;;;;12.02;1.63;;;;;;;;;;5037338;28;20049;-72
2022/01/08 21:04:21;;;;;;;10.48;1.80;;;;;;;;;;5045017;28;20025;-72
2022/01/08 21:06:51;;;;;;;10.02;1.92;;;6.70;99.90;;;;;;5039252;28;20044;-72
2022/01/08 21:09:17;;;;;;;8.18;1.42;;;6.80;99.90;;;;;;5035855;28;20021;-72
2022/01/08 21:11:50;;;;;;;11.38;1.52;;;6.80;99.90;;;;;;5034871;28;20107;-72
2022/01/08 21:14:19;;;;;;;13.55;1.83;;;6.90;99.90;;;;;;5047291;28;20025;-72
2022/01/08 21:16:48;;;;;;;13.35;1.83;;;6.90;99.90;;;;;;5045807;28;20039;-72
2022/01/08 21:19:17;;;;;;;12.15;1.70;;;6.90;99.90;;;;;;5053232;28;20017;-72